Time;durP1;ratioP1;P1;durP2;ratioP2;P2;SDS_P1;SDS_P2;PMS_P1;PMS_P2;Temp;Humidity;BMP_temperature;BMP_pressure;BME280_temperature;BME280_humidity;BME280_pressure;Samples;Min_cycle;Max_cycle;Signal;HPM_P1;HPM_P2
2021/01/03 00:00:58;;;;;;;20.03;10.93;;;3.40;99.90;;;;;;5001923;28;20789;-80
2021/01/03 00:03:25;;;;;;;22.10;9.73;;;3.50;99.90;;;;;;5002167;28;20413;-81
2021/01/03 00:05:57;;;;;;;13.87;8.27;;;3.50;99.90;;;;;;5018136;28;20407;-80
2021/01/03 00:08:25;;;;;;;15.73;10.00;;;3.60;99.90;;;;;;4966336;28;20505;-80
2021/01/03 00:10:51;;;;;;;21.47;8.30;;;3.50;99.90;;;;;;4986632;28;20200;-80
2021/01/03 00:13:17;;;;;;;14.90;9.70;;;3.20;99.90;;;;;;4969576;28;20524;-81
2021/01/03 00:15:43;;;;;;;23.80;10.90;;;3.30;99.90;;;;;;4970922;28;20417;-80
2021/01/03 00:18:12;;;;;;;10.73;8.40;;;3.10;99.90;;;;;;4987572;28;20412;-80
2021/01/03 00:20:38;;;;;;;18.33;9.00;;;3.30;99.90;;;;;;5004180;28;20432;-80
2021/01/03 00:23:06;;;;;;;18.67;10.63;;;3.40;99.90;;;;;;5011383;28;20427;-77
2021/01/03 00:25:34;;;;;;;17.30;7.87;;;3.40;99.90;;;;;;4983074;28;20413;-77
2021/01/03 00:28:00;;;;;;;14.90;10.40;;;3.50;99.90;;;;;;4998891;28;20398;-77
2021/01/03 00:30:28;;;;;;;16.77;8.03;;;3.40;99.90;;;;;;4966843;28;20170;-79
2021/01/03 00:32:59;;;;;;;12.33;8.37;;;3.60;99.90;;;;;;4971820;28;20258;-80
2021/01/03 00:35:30;;;;;;;13.87;7.70;;;3.50;99.90;;;;;;4971743;28;20377;-79
2021/01/03 00:38:06;;;;;;;17.90;8.10;;;3.30;99.90;;;;;;4956598;28;20389;-80
2021/01/03 00:40:32;;;;;;;18.50;10.30;;;3.50;99.90;;;;;;4990489;28;20390;-79
2021/01/03 00:42:59;;;;;;;10.20;7.13;;;3.40;99.90;;;;;;4972978;28;20448;-79
2021/01/03 00:45:25;;;;;;;14.90;9.20;;;3.50;99.90;;;;;;4973618;28;20914;-80
2021/01/03 00:47:51;;;;;;;12.77;8.40;;;3.60;99.90;;;;;;4972898;28;20558;-80
2021/01/03 00:50:17;;;;;;;14.57;9.50;;;3.70;99.90;;;;;;4953682;28;20505;-80
2021/01/03 00:52:43;;;;;;;12.33;9.37;;;3.60;99.90;;;;;;4969327;28;20497;-80
2021/01/03 00:55:12;;;;;;;16.43;7.17;;;3.70;99.90;;;;;;4953897;28;20387;-80
2021/01/03 00:57:38;;;;;;;15.70;8.67;;;3.80;99.90;;;;;;4952829;28;20410;-80
2021/01/03 01:00:13;;;;;;;11.90;7.57;;;3.80;99.90;;;;;;4968524;28;20398;-80
2021/01/03 01:02:38;;;;;;;15.13;9.40;;;3.70;99.90;;;;;;4953224;28;20167;-80
2021/01/03 01:05:05;;;;;;;17.80;9.57;;;3.40;99.90;;;;;;4952518;28;20541;-80
2021/01/03 01:07:35;;;;;;;15.60;7.60;;;3.50;99.90;;;;;;4954004;28;20202;-79
2021/01/03 01:10:03;;;;;;;19.20;8.33;;;3.30;99.90;;;;;;4938752;28;20518;-79
2021/01/03 01:12:30;;;;;;;15.57;8.13;;;3.50;99.90;;;;;;4968012;28;20464;-79
2021/01/03 01:14:58;;;;;;;15.20;11.20;;;3.40;99.90;;;;;;4961505;28;20400;-78
2021/01/03 01:17:29;;;;;;;12.70;6.60;;;3.50;99.90;;;;;;5021403;28;20436;-78
2021/01/03 01:19:56;;;;;;;14.60;8.57;;;3.50;99.90;;;;;;5004018;28;20525;-79
2021/01/03 01:22:22;;;;;;;17.27;9.37;;;3.60;99.90;;;;;;5000066;28;20403;-79
2021/01/03 01:24:50;;;;;;;11.43;8.70;;;3.60;99.90;;;;;;4984063;28;20394;-79
2021/01/03 01:27:18;;;;;;;16.70;8.60;;;3.50;99.90;;;;;;5000759;28;20491;-80
2021/01/03 01:29:44;;;;;;;14.80;10.23;;;3.50;99.90;;;;;;4964096;28;20414;-80
2021/01/03 01:32:11;;;;;;;15.57;8.40;;;3.50;99.90;;;;;;4982586;28;20465;-80
2021/01/03 01:34:37;;;;;;;10.97;8.50;;;3.40;99.90;;;;;;4967463;28;20171;-80
2021/01/03 01:37:04;;;;;;;12.90;7.30;;;3.50;99.90;;;;;;4983059;28;20421;-80
2021/01/03 01:39:36;;;;;;;17.23;9.00;;;3.40;99.90;;;;;;4972120;28;20178;-80
2021/01/03 01:42:05;;;;;;;17.13;9.50;;;3.60;99.90;;;;;;4969845;28;20358;-79
2021/01/03 01:44:31;;;;;;;18.03;7.60;;;3.50;99.90;;;;;;4966727;28;20495;-79
2021/01/03 01:47:06;;;;;;;12.53;8.20;;;3.50;99.90;;;;;;4973167;28;20263;-78
2021/01/03 01:49:39;;;;;;;12.83;7.30;;;3.50;99.90;;;;;;4988083;28;20169;-79
2021/01/03 01:52:05;;;;;;;15.20;7.53;;;3.40;99.90;;;;;;4970673;28;20402;-79
2021/01/03 01:54:39;;;;;;;11.73;8.10;;;3.30;99.90;;;;;;4971540;28;20469;-79
2021/01/03 01:57:18;;;;;;;14.97;7.90;;;3.30;99.90;;;;;;5003413;28;20393;-79
2021/01/03 01:59:58;;;;;;;16.63;9.13;;;3.60;99.90;;;;;;4969865;28;20389;-79
2021/01/03 02:02:47;;;;;;;13.37;7.40;;;3.60;99.90;;;;;;4973375;28;20405;-79
2021/01/03 02:05:23;;;;;;;14.73;8.40;;;3.60;99.90;;;;;;5004304;28;20393;-79
2021/01/03 02:08:07;;;;;;;14.53;9.43;;;3.50;99.90;;;;;;5003741;28;20397;-79
2021/01/03 02:10:38;;;;;;;13.23;6.97;;;3.50;99.90;;;;;;5014984;28;20444;-79
2021/01/03 02:13:20;;;;;;;10.83;7.73;;;3.60;99.90;;;;;;5027770;28;20414;-79
2021/01/03 02:16:19;;;;;;;13.50;7.20;;;3.60;99.90;;;;;;5005139;28;20452;-79
2021/01/03 02:18:46;;;;;;;20.50;7.50;;;3.70;99.90;;;;;;4988678;28;20899;-79
2021/01/03 02:21:44;;;;;;;10.77;7.70;;;3.80;99.90;;;;;;5008004;28;20832;-79
2021/01/03 02:24:17;;;;;;;10.87;7.70;;;3.80;99.90;;;;;;5008459;28;20424;-79
2021/01/03 02:27:09;;;;;;;11.90;7.00;;;3.80;99.90;;;;;;5008813;28;20478;-79
2021/01/03 02:29:38;;;;;;;12.90;8.83;;;3.80;99.90;;;;;;4984809;28;20407;-79
2021/01/03 02:32:06;;;;;;;15.40;8.00;;;3.80;99.90;;;;;;4968811;28;20571;-79
2021/01/03 02:34:38;;;;;;;14.00;7.83;;;3.90;99.90;;;;;;4948259;29;20486;-79
2021/01/03 02:37:11;;;;;;;12.93;7.27;;;3.90;99.90;;;;;;4948928;29;20411;-79
2021/01/03 02:39:52;;;;;;;18.60;9.37;;;3.80;99.90;;;;;;4949280;29;20835;-79
2021/01/03 02:42:26;;;;;;;10.10;7.40;;;3.80;99.90;;;;;;4924760;29;20408;-80
2021/01/03 02:44:53;;;;;;;14.13;8.07;;;3.70;99.90;;;;;;4925024;29;20445;-79
2021/01/03 02:47:28;;;;;;;17.40;10.30;;;3.80;99.90;;;;;;4908758;29;20473;-79
2021/01/03 02:49:54;;;;;;;16.20;8.90;;;3.80;99.90;;;;;;4908897;29;20409;-79
2021/01/03 02:52:29;;;;;;;13.80;9.30;;;3.80;99.90;;;;;;4924790;29;20394;-79
2021/01/03 02:54:55;;;;;;;20.73;9.60;;;3.70;99.90;;;;;;4923949;29;20525;-79
2021/01/03 02:57:21;;;;;;;17.60;9.43;;;3.80;99.90;;;;;;4924965;29;20397;-79
2021/01/03 03:00:09;;;;;;;14.37;9.57;;;3.80;99.90;;;;;;4935599;29;20175;-79
2021/01/03 03:02:35;;;;;;;13.10;9.23;;;3.80;99.90;;;;;;4962769;29;20783;-79
2021/01/03 03:05:06;;;;;;;13.37;9.57;;;3.70;99.90;;;;;;4922145;29;20380;-79
2021/01/03 03:07:35;;;;;;;11.60;8.40;;;3.60;99.90;;;;;;4923960;29;20397;-79
2021/01/03 03:10:02;;;;;;;13.60;8.10;;;3.60;99.90;;;;;;4940166;29;20417;-79
2021/01/03 03:12:28;;;;;;;21.03;8.57;;;3.60;99.90;;;;;;4923902;29;20193;-79
2021/01/03 03:14:54;;;;;;;19.10;10.60;;;3.60;99.90;;;;;;4940640;29;20420;-79
2021/01/03 03:17:20;;;;;;;12.87;8.70;;;3.60;99.90;;;;;;4940060;29;20224;-79
2021/01/03 03:19:45;;;;;;;15.87;8.20;;;3.50;99.90;;;;;;4933402;29;20588;-79
2021/01/03 03:22:15;;;;;;;13.60;9.37;;;3.50;99.90;;;;;;4924143;29;20227;-79
2021/01/03 03:24:42;;;;;;;21.23;10.47;;;3.50;99.90;;;;;;4924312;29;20379;-79
2021/01/03 03:27:08;;;;;;;19.93;10.23;;;3.50;99.90;;;;;;4923432;29;20404;-79
2021/01/03 03:29:36;;;;;;;19.27;10.50;;;3.50;99.90;;;;;;4925131;29;20416;-82
2021/01/03 03:32:02;;;;;;;15.40;9.70;;;3.50;99.90;;;;;;4926660;29;20177;-79
2021/01/03 03:34:34;;;;;;;14.27;10.57;;;3.40;99.90;;;;;;4921886;29;20449;-80
2021/01/03 03:37:01;;;;;;;17.47;9.80;;;3.40;99.90;;;;;;4938225;29;20894;-79
2021/01/03 03:39:27;;;;;;;19.43;10.97;;;3.40;99.90;;;;;;4942254;29;20395;-79
2021/01/03 03:41:55;;;;;;;15.63;9.30;;;3.40;99.90;;;;;;4943298;29;20427;-79
2021/01/03 03:44:24;;;;;;;19.27;7.97;;;3.40;99.90;;;;;;4981947;28;20480;-79
2021/01/03 03:46:54;;;;;;;15.57;10.20;;;3.30;99.90;;;;;;4945963;29;20418;-80
2021/01/03 03:49:24;;;;;;;13.13;8.67;;;3.30;99.90;;;;;;4946432;29;20442;-80
2021/01/03 03:51:54;;;;;;;15.50;9.20;;;3.20;99.90;;;;;;4961357;29;20466;-79
2021/01/03 03:54:20;;;;;;;17.50;10.10;;;3.20;99.90;;;;;;4945719;29;20537;-79
2021/01/03 03:56:54;;;;;;;12.00;9.07;;;3.20;99.90;;;;;;4945871;29;20761;-79
2021/01/03 03:59:22;;;;;;;14.50;9.53;;;3.10;99.90;;;;;;4945996;29;20414;-79
2021/01/03 04:01:50;;;;;;;20.53;11.10;;;3.10;99.90;;;;;;4932864;28;20510;-80
2021/01/03 04:04:17;;;;;;;18.03;9.60;;;3.20;99.90;;;;;;4981850;28;20406;-79
2021/01/03 04:06:46;;;;;;;16.80;9.17;;;3.20;99.90;;;;;;4950805;28;20430;-80
2021/01/03 04:09:13;;;;;;;14.77;7.47;;;3.10;99.90;;;;;;4982988;28;20390;-79
2021/01/03 04:11:41;;;;;;;15.20;9.37;;;3.20;99.90;;;;;;4973173;28;20182;-79
2021/01/03 04:14:08;;;;;;;16.40;8.90;;;3.10;99.90;;;;;;4976720;28;20438;-79
2021/01/03 04:16:50;;;;;;;16.97;9.03;;;3.10;99.90;;;;;;4972947;29;20391;-79
2021/01/03 04:19:19;;;;;;;13.50;8.20;;;3.10;99.90;;;;;;4967395;29;20494;-79
2021/01/03 04:21:59;;;;;;;12.70;9.03;;;3.10;99.90;;;;;;4966002;28;20418;-80
2021/01/03 04:24:29;;;;;;;18.03;10.20;;;3.10;99.90;;;;;;4986694;28;20969;-80
2021/01/03 04:27:04;;;;;;;15.80;10.53;;;3.10;99.90;;;;;;5174321;23;20463;-78
2021/01/03 04:29:32;;;;;;;9.57;7.47;;;3.00;99.90;;;;;;5111569;28;20472;-79
2021/01/03 04:32:03;;;;;;;20.00;9.40;;;3.10;99.90;;;;;;5041246;28;20514;-79
2021/01/03 04:34:30;;;;;;;12.57;7.73;;;3.10;99.90;;;;;;5008702;28;20465;-79
2021/01/03 04:36:57;;;;;;;13.87;7.37;;;3.10;99.90;;;;;;5042008;28;20891;-79
2021/01/03 04:39:26;;;;;;;17.73;11.00;;;3.10;99.90;;;;;;5026382;28;20490;-79
2021/01/03 04:41:59;;;;;;;15.43;9.70;;;3.00;99.90;;;;;;5026877;28;20418;-79
2021/01/03 04:44:35;;;;;;;10.50;8.63;;;3.00;99.90;;;;;;5060581;28;20381;-79
2021/01/03 04:47:07;;;;;;;11.90;9.00;;;3.00;99.90;;;;;;5062264;28;20453;-78
2021/01/03 04:49:41;;;;;;;10.23;8.97;;;3.10;99.90;;;;;;5072577;28;20473;-79
2021/01/03 04:52:39;;;;;;;11.97;8.20;;;3.00;99.90;;;;;;5041996;28;20776;-78
2021/01/03 04:55:18;;;;;;;8.20;7.27;;;3.00;99.90;;;;;;5060969;28;20395;-80
2021/01/03 04:58:09;;;;;;;11.50;7.00;;;2.90;99.90;;;;;;5061437;28;20417;-80
2021/01/03 05:00:43;;;;;;;12.40;7.30;;;3.00;99.90;;;;;;5061172;28;20399;-80
2021/01/03 05:03:40;;;;;;;7.13;5.97;;;3.00;99.90;;;;;;5070485;28;20412;-80
2021/01/03 05:06:20;;;;;;;11.37;8.13;;;3.10;99.90;;;;;;5066254;28;20451;-80
2021/01/03 05:08:54;;;;;;;15.53;9.60;;;3.00;99.90;;;;;;5050755;28;20390;-80
2021/01/03 05:11:26;;;;;;;11.30;7.43;;;3.10;99.90;;;;;;5067920;28;20389;-80
2021/01/03 05:14:05;;;;;;;8.50;7.17;;;3.10;99.90;;;;;;5083150;28;20457;-80
2021/01/03 05:16:30;;;;;;;17.20;9.57;;;3.00;99.90;;;;;;5049931;28;20398;-80
2021/01/03 05:18:57;;;;;;;9.00;7.10;;;3.00;99.90;;;;;;5032652;28;21001;-79
2021/01/03 05:21:23;;;;;;;10.37;9.27;;;3.00;99.90;;;;;;5065687;28;20214;-80
2021/01/03 05:24:02;;;;;;;13.30;9.07;;;2.90;99.90;;;;;;5065339;28;20760;-79
2021/01/03 05:26:32;;;;;;;14.10;8.50;;;3.00;99.90;;;;;;5025183;28;20481;-80
2021/01/03 05:28:59;;;;;;;8.07;6.60;;;3.00;99.90;;;;;;5009336;28;20420;-79
2021/01/03 05:31:26;;;;;;;14.67;7.87;;;3.00;99.90;;;;;;5058569;28;20413;-80
2021/01/03 05:33:59;;;;;;;12.63;7.13;;;3.00;99.90;;;;;;5030443;28;20445;-80
2021/01/03 05:36:35;;;;;;;11.57;7.10;;;3.00;99.90;;;;;;5000328;28;20413;-80
2021/01/03 05:39:09;;;;;;;8.17;6.17;;;3.00;99.90;;;;;;4964458;28;20441;-80
2021/01/03 05:42:01;;;;;;;10.00;5.40;;;3.00;99.90;;;;;;4925287;29;20474;-80
2021/01/03 05:44:32;;;;;;;11.60;7.20;;;3.00;99.90;;;;;;4943307;29;20429;-80
2021/01/03 05:47:06;;;;;;;9.63;6.23;;;3.00;99.90;;;;;;4942758;29;20478;-80
2021/01/03 05:49:36;;;;;;;10.33;7.40;;;3.00;99.90;;;;;;4927907;29;20872;-80
2021/01/03 05:52:21;;;;;;;10.97;7.63;;;3.00;99.90;;;;;;4943778;29;21030;-80
2021/01/03 05:54:48;;;;;;;10.30;6.20;;;3.00;99.90;;;;;;4927366;29;20420;-80
2021/01/03 05:57:30;;;;;;;11.23;7.20;;;3.00;99.90;;;;;;4959532;28;20402;-80
2021/01/03 06:00:13;;;;;;;9.20;5.30;;;3.00;99.90;;;;;;4980450;28;20387;-79
2021/01/03 06:02:39;;;;;;;15.70;7.50;;;3.00;99.90;;;;;;4964504;28;20484;-80
2021/01/03 06:05:13;;;;;;;11.93;8.80;;;3.00;99.90;;;;;;4922352;29;20969;-80
2021/01/03 06:07:39;;;;;;;11.33;7.23;;;3.10;99.90;;;;;;4905882;29;20184;-80
2021/01/03 06:10:27;;;;;;;13.53;8.27;;;3.10;99.90;;;;;;4907155;29;20431;-80
2021/01/03 06:13:00;;;;;;;6.37;5.63;;;3.10;99.90;;;;;;4947509;28;20459;-79
2021/01/03 06:15:30;;;;;;;9.57;6.00;;;3.10;99.90;;;;;;4983806;28;20417;-80
2021/01/03 06:17:59;;;;;;;11.50;7.37;;;3.10;99.90;;;;;;5002282;28;20416;-80
2021/01/03 06:20:30;;;;;;;14.30;8.33;;;3.10;99.90;;;;;;5009793;28;20495;-78
2021/01/03 06:23:06;;;;;;;10.83;6.33;;;3.10;99.90;;;;;;4966667;28;20409;-77
2021/01/03 06:25:56;;;;;;;7.80;5.93;;;3.00;99.90;;;;;;4998311;28;20418;-77
2021/01/03 06:28:37;;;;;;;9.07;7.20;;;3.10;99.90;;;;;;4978832;28;20470;-80
2021/01/03 06:31:23;;;;;;;11.33;8.10;;;3.10;99.90;;;;;;4967437;28;20963;-79
2021/01/03 06:34:07;;;;;;;9.07;6.83;;;3.10;99.90;;;;;;4911035;29;20459;-79
2021/01/03 06:36:56;;;;;;;7.77;5.97;;;3.10;99.90;;;;;;4969816;28;20431;-80
2021/01/03 06:39:30;;;;;;;8.73;5.87;;;3.10;99.90;;;;;;4946918;29;20430;-79
2021/01/03 06:42:01;;;;;;;5.57;4.77;;;3.10;99.90;;;;;;4907957;29;20416;-80
2021/01/03 06:44:45;;;;;;;11.60;6.77;;;3.10;99.90;;;;;;4923153;29;20419;-80
2021/01/03 06:47:38;;;;;;;6.10;4.70;;;3.20;99.90;;;;;;4924188;29;20420;-79
2021/01/03 06:50:46;;;;;;;7.33;5.73;;;3.10;99.90;;;;;;4885238;29;20447;-80
2021/01/03 06:53:47;;;;;;;7.20;6.03;;;3.00;99.90;;;;;;4890096;29;20465;-80
2021/01/03 06:56:46;;;;;;;6.63;5.93;;;3.10;99.90;;;;;;4905266;29;20444;-79
2021/01/03 06:59:45;;;;;;;6.10;4.60;;;3.00;99.90;;;;;;4905579;29;20432;-80
2021/01/03 07:02:10;;;;;;;7.90;5.40;;;3.10;99.90;;;;;;4905349;29;20514;-79
2021/01/03 07:04:40;;;;;;;13.93;8.13;;;3.10;99.90;;;;;;4915068;29;20413;-79
2021/01/03 07:07:14;;;;;;;6.63;5.60;;;3.10;99.90;;;;;;4924163;29;20192;-80
2021/01/03 07:10:00;;;;;;;6.30;5.67;;;3.10;99.90;;;;;;4923199;29;20446;-80
2021/01/03 07:12:35;;;;;;;5.73;5.23;;;3.00;99.90;;;;;;4936360;29;20414;-80
2021/01/03 07:15:01;;;;;;;9.83;5.27;;;3.00;99.90;;;;;;4961673;29;20395;-80
2021/01/03 07:18:05;;;;;;;7.57;4.43;;;3.00;99.90;;;;;;5015681;28;20418;-80
2021/01/03 07:20:47;;;;;;;7.07;5.60;;;3.00;99.90;;;;;;5049152;28;20461;-80
2021/01/03 07:23:21;;;;;;;7.97;5.03;;;3.00;99.90;;;;;;5046866;28;20430;-80
2021/01/03 07:26:12;;;;;;;7.37;4.80;;;3.00;99.90;;;;;;5047185;28;20803;-79
2021/01/03 07:28:50;;;;;;;8.17;5.17;;;3.00;99.90;;;;;;5032806;28;20439;-79
2021/01/03 07:31:49;;;;;;;6.27;5.67;;;3.00;99.90;;;;;;5001659;28;20487;-80
2021/01/03 07:34:28;;;;;;;10.93;4.63;;;3.10;99.90;;;;;;5086525;28;20453;-79
2021/01/03 07:36:58;;;;;;;12.10;5.97;;;3.10;99.90;;;;;;5123921;28;20400;-77
2021/01/03 07:39:28;;;;;;;6.37;5.73;;;3.10;99.90;;;;;;5107047;28;20400;-79
2021/01/03 07:42:23;;;;;;;5.83;5.03;;;3.10;99.90;;;;;;5093588;28;20417;-80
2021/01/03 07:44:50;;;;;;;8.17;6.53;;;3.10;99.90;;;;;;5088672;28;20503;-80
2021/01/03 07:47:36;;;;;;;6.27;5.67;;;3.10;99.90;;;;;;5108599;28;20404;-80
2021/01/03 07:50:32;;;;;;;6.20;4.60;;;3.10;99.90;;;;;;5078215;28;20438;-80
2021/01/03 07:53:23;;;;;;;15.87;7.40;;;3.00;99.90;;;;;;5089770;28;20550;-79
2021/01/03 07:55:48;;;;;;;17.93;12.03;;;3.10;99.90;;;;;;5106473;28;20427;-79
2021/01/03 07:58:19;;;;;;;16.37;10.57;;;3.10;99.90;;;;;;5072548;28;20416;-80
2021/01/03 08:00:51;;;;;;;15.00;9.90;;;3.00;99.90;;;;;;5072895;28;20638;-80
2021/01/03 08:03:25;;;;;;;11.80;7.40;;;3.00;99.90;;;;;;5072999;28;20404;-79
2021/01/03 08:06:02;;;;;;;6.23;5.37;;;3.10;99.90;;;;;;5047954;28;20412;-80
2021/01/03 08:08:29;;;;;;;15.90;9.27;;;3.10;99.90;;;;;;5050010;28;20425;-79
2021/01/03 08:11:21;;;;;;;6.27;5.50;;;3.10;99.90;;;;;;5049466;28;20484;-80
2021/01/03 08:13:50;;;;;;;8.87;4.90;;;3.10;99.90;;;;;;5048567;28;20457;-80
2021/01/03 08:16:21;;;;;;;6.03;5.40;;;3.10;99.90;;;;;;5048658;28;20414;-80
2021/01/03 08:19:04;;;;;;;6.80;5.53;;;3.10;99.90;;;;;;5048586;28;20423;-80
2021/01/03 08:21:35;;;;;;;5.97;4.97;;;3.10;99.90;;;;;;5052357;28;20434;-79
2021/01/03 08:24:14;;;;;;;4.30;3.90;;;3.10;99.90;;;;;;5068918;28;20778;-79
2021/01/03 08:26:51;;;;;;;6.23;5.50;;;3.10;99.90;;;;;;5050376;28;21011;-80
2021/01/03 08:29:36;;;;;;;6.60;3.70;;;3.10;99.90;;;;;;5047360;28;20457;-80
2021/01/03 08:32:08;;;;;;;9.67;4.87;;;3.10;99.90;;;;;;5049782;28;20827;-79
2021/01/03 08:34:42;;;;;;;4.30;3.87;;;3.20;99.90;;;;;;5047531;28;20472;-79
2021/01/03 08:37:26;;;;;;;4.97;4.50;;;3.20;99.90;;;;;;5009530;28;20471;-80
2021/01/03 08:39:54;;;;;;;5.60;4.37;;;3.30;99.90;;;;;;5022265;28;20423;-80
2021/01/03 08:42:39;;;;;;;5.20;4.17;;;3.30;99.90;;;;;;5012291;28;20874;-80
2021/01/03 08:45:07;;;;;;;8.70;6.03;;;3.30;99.90;;;;;;5044437;28;20433;-80
2021/01/03 08:47:40;;;;;;;6.53;5.30;;;3.30;99.90;;;;;;5045076;28;20402;-80
2021/01/03 08:50:10;;;;;;;6.00;5.50;;;3.30;99.90;;;;;;5043964;28;20418;-80
2021/01/03 08:52:37;;;;;;;9.10;7.30;;;3.30;99.90;;;;;;5065292;28;20418;-80
2021/01/03 08:55:08;;;;;;;7.70;6.30;;;3.40;99.90;;;;;;5031481;28;20384;-80
2021/01/03 08:57:36;;;;;;;5.53;5.00;;;3.40;99.90;;;;;;5030603;28;20385;-80
2021/01/03 09:00:04;;;;;;;6.37;4.90;;;3.40;99.90;;;;;;5027111;28;20475;-79
2021/01/03 09:02:30;;;;;;;7.37;6.10;;;3.40;99.90;;;;;;5026514;28;20440;-79
2021/01/03 09:05:03;;;;;;;8.43;6.43;;;3.40;99.90;;;;;;5041860;28;20391;-79
2021/01/03 09:07:34;;;;;;;7.73;6.20;;;3.50;99.90;;;;;;5040578;28;20445;-79
2021/01/03 09:10:01;;;;;;;7.50;5.90;;;3.50;99.90;;;;;;5081427;28;20469;-78
2021/01/03 09:12:39;;;;;;;6.13;5.63;;;3.50;99.90;;;;;;5064737;28;20404;-79
2021/01/03 09:15:24;;;;;;;7.90;4.47;;;3.50;99.90;;;;;;5063794;28;20430;-79
2021/01/03 09:18:13;;;;;;;8.80;5.80;;;3.40;99.90;;;;;;5080917;28;20406;-79
2021/01/03 09:20:44;;;;;;;9.73;6.80;;;3.40;99.90;;;;;;5063104;28;20443;-79
2021/01/03 09:23:18;;;;;;;8.60;5.83;;;3.40;99.90;;;;;;5062889;28;20612;-79
2021/01/03 09:25:53;;;;;;;16.03;8.70;;;3.40;99.90;;;;;;5064864;28;20417;-79
2021/01/03 09:28:31;;;;;;;9.87;7.00;;;3.40;99.90;;;;;;5063909;28;20464;-79
2021/01/03 09:31:14;;;;;;;7.50;5.10;;;3.50;99.90;;;;;;5058003;28;20390;-78
2021/01/03 09:33:45;;;;;;;6.00;5.37;;;3.40;99.90;;;;;;5097736;28;20437;-76
2021/01/03 09:36:41;;;;;;;6.23;5.63;;;3.50;99.90;;;;;;5081519;28;20426;-77
2021/01/03 09:39:40;;;;;;;6.80;5.80;;;3.50;99.90;;;;;;5080522;28;20390;-77
2021/01/03 09:42:37;;;;;;;11.80;7.00;;;3.50;99.90;;;;;;5117053;28;20385;-79
2021/01/03 09:45:35;;;;;;;5.63;5.13;;;3.60;99.90;;;;;;5118245;28;20408;-78
2021/01/03 09:48:01;;;;;;;7.00;6.37;;;3.50;99.90;;;;;;5118551;28;20376;-77
2021/01/03 09:50:46;;;;;;;10.37;7.37;;;3.60;99.90;;;;;;5118382;28;20445;-78
2021/01/03 09:53:29;;;;;;;8.77;7.60;;;3.50;99.90;;;;;;5079007;28;20449;-79
2021/01/03 09:56:09;;;;;;;7.73;6.73;;;3.60;99.90;;;;;;5092945;28;20360;-79
2021/01/03 09:58:37;;;;;;;22.03;13.50;;;3.60;99.90;;;;;;5059868;28;20387;-79
2021/01/03 10:01:05;;;;;;;8.30;7.47;;;3.60;99.90;;;;;;5087377;28;20433;-80
2021/01/03 10:03:38;;;;;;;9.10;8.17;;;3.70;99.90;;;;;;5067757;28;20417;-80
2021/01/03 10:06:20;;;;;;;12.07;6.73;;;3.70;99.90;;;;;;5085252;28;20380;-79
2021/01/03 10:08:47;;;;;;;13.83;6.87;;;3.60;99.90;;;;;;5085199;28;20475;-80
2021/01/03 10:11:27;;;;;;;7.90;6.87;;;3.60;99.90;;;;;;5067873;28;20388;-79
2021/01/03 10:13:58;;;;;;;6.23;5.17;;;3.60;99.90;;;;;;5067518;28;20457;-80
2021/01/03 10:16:29;;;;;;;7.57;5.87;;;3.70;99.90;;;;;;5085633;28;20398;-79
2021/01/03 10:18:58;;;;;;;9.33;6.60;;;3.70;99.90;;;;;;5054355;28;20398;-80
2021/01/03 10:21:33;;;;;;;14.97;7.73;;;3.70;99.90;;;;;;5052934;28;20442;-80
2021/01/03 10:24:11;;;;;;;12.13;7.50;;;3.70;99.90;;;;;;5044207;28;20454;-80
2021/01/03 10:26:39;;;;;;;11.70;7.97;;;3.70;99.90;;;;;;5071314;28;20482;-79
2021/01/03 10:29:09;;;;;;;14.97;7.40;;;3.70;99.90;;;;;;5088688;28;20413;-80
2021/01/03 10:31:45;;;;;;;12.67;7.70;;;3.80;99.90;;;;;;5071832;28;20399;-80
2021/01/03 10:34:16;;;;;;;9.20;7.73;;;3.70;99.90;;;;;;5088833;28;20460;-80
2021/01/03 10:36:41;;;;;;;9.30;6.87;;;3.70;99.90;;;;;;5088416;28;20393;-80
2021/01/03 10:39:11;;;;;;;12.00;8.57;;;3.80;99.90;;;;;;5090953;28;20428;-80
2021/01/03 10:41:38;;;;;;;12.80;9.73;;;3.70;99.90;;;;;;5086836;28;20199;-80
2021/01/03 10:44:10;;;;;;;8.20;7.20;;;3.70;99.90;;;;;;5085028;28;20412;-80
2021/01/03 10:46:40;;;;;;;12.70;8.80;;;3.70;99.90;;;;;;5105456;28;20393;-79
2021/01/03 10:49:07;;;;;;;8.93;7.17;;;3.70;99.90;;;;;;5117319;28;20404;-79
2021/01/03 10:51:38;;;;;;;17.03;7.97;;;3.70;99.90;;;;;;5041599;28;20468;-80
2021/01/03 10:54:07;;;;;;;12.43;7.07;;;3.70;99.90;;;;;;5038143;28;20455;-80
2021/01/03 10:56:33;;;;;;;14.37;9.80;;;3.70;99.90;;;;;;5005763;28;20431;-80
2021/01/03 10:58:59;;;;;;;12.03;6.80;;;3.70;99.90;;;;;;4999637;28;20539;-79
2021/01/03 11:01:25;;;;;;;11.73;8.30;;;3.70;99.90;;;;;;4984740;28;20410;-80
2021/01/03 11:03:52;;;;;;;9.10;7.53;;;3.70;99.90;;;;;;4986819;28;20421;-79
2021/01/03 11:06:20;;;;;;;9.13;7.50;;;3.70;99.90;;;;;;4967583;28;20240;-79
2021/01/03 11:08:47;;;;;;;11.30;7.53;;;3.70;99.90;;;;;;4948485;28;20418;-79
2021/01/03 11:11:19;;;;;;;11.00;6.80;;;3.60;99.90;;;;;;4979273;28;20762;-78
2021/01/03 11:13:48;;;;;;;9.93;8.40;;;3.60;99.90;;;;;;4963100;28;20538;-79
2021/01/03 11:16:15;;;;;;;8.37;6.33;;;3.60;99.90;;;;;;4941557;29;20408;-79
2021/01/03 11:18:40;;;;;;;12.60;6.67;;;3.60;99.90;;;;;;4931582;29;20198;-79
2021/01/03 11:21:14;;;;;;;9.50;7.83;;;3.60;99.90;;;;;;4923828;29;20432;-79
2021/01/03 11:23:39;;;;;;;13.30;7.93;;;3.50;99.90;;;;;;4963415;28;20422;-80
2021/01/03 11:26:08;;;;;;;10.60;7.63;;;3.50;99.90;;;;;;4984099;28;20432;-80
2021/01/03 11:28:37;;;;;;;11.53;6.73;;;3.60;99.90;;;;;;4967465;28;20210;-80
2021/01/03 11:31:02;;;;;;;9.03;7.30;;;3.60;99.90;;;;;;4971584;28;20404;-80
2021/01/03 11:33:29;;;;;;;7.30;6.60;;;3.60;99.90;;;;;;5005001;28;20212;-79
2021/01/03 11:35:56;;;;;;;7.70;7.00;;;3.60;99.90;;;;;;5005315;28;20188;-80
2021/01/03 11:38:24;;;;;;;8.57;7.50;;;3.60;99.90;;;;;;4984474;28;20408;-80
2021/01/03 11:40:50;;;;;;;11.63;7.90;;;3.60;99.90;;;;;;4968472;28;20414;-79
2021/01/03 11:43:16;;;;;;;8.43;6.70;;;3.50;99.90;;;;;;4967904;28;20193;-80
2021/01/03 11:45:42;;;;;;;6.40;5.90;;;3.50;99.90;;;;;;5003573;28;20188;-80
2021/01/03 11:48:09;;;;;;;6.33;5.77;;;3.60;99.90;;;;;;4969839;28;20468;-79
2021/01/03 11:50:38;;;;;;;6.40;5.80;;;3.60;99.90;;;;;;4976454;28;20262;-79
2021/01/03 11:53:10;;;;;;;6.63;6.03;;;3.60;99.90;;;;;;4956657;29;20993;-79
2021/01/03 11:55:39;;;;;;;7.60;6.57;;;3.60;99.90;;;;;;4972515;29;20422;-80
2021/01/03 11:58:14;;;;;;;9.30;6.63;;;3.70;99.90;;;;;;4953077;29;20463;-79
2021/01/03 12:00:41;;;;;;;13.33;6.87;;;3.60;99.90;;;;;;4937653;28;20447;-79
2021/01/03 12:03:09;;;;;;;7.27;6.00;;;3.70;99.90;;;;;;4930527;29;20463;-80
2021/01/03 12:05:37;;;;;;;9.03;6.60;;;3.70;99.90;;;;;;4945698;29;20418;-81
2021/01/03 12:08:03;;;;;;;11.70;7.70;;;3.70;99.90;;;;;;4944952;29;20416;-80
2021/01/03 12:10:28;;;;;;;7.97;6.60;;;3.70;99.90;;;;;;4929479;29;20503;-81
2021/01/03 12:12:54;;;;;;;6.53;5.17;;;3.70;99.90;;;;;;4927676;29;20446;-81
2021/01/03 12:15:24;;;;;;;7.03;5.93;;;3.70;99.90;;;;;;4958919;28;20278;-80
2021/01/03 12:17:53;;;;;;;8.90;5.50;;;3.70;99.90;;;;;;4968811;28;20417;-80
2021/01/03 12:20:21;;;;;;;9.27;5.83;;;3.80;99.90;;;;;;4945074;29;20456;-80
2021/01/03 12:22:52;;;;;;;8.17;6.20;;;3.70;99.90;;;;;;4929557;29;20487;-80
2021/01/03 12:25:18;;;;;;;6.77;5.93;;;3.70;99.90;;;;;;4968134;28;20498;-78
2021/01/03 12:27:45;;;;;;;10.10;7.33;;;3.70;99.90;;;;;;4975209;28;20426;-78
2021/01/03 12:30:12;;;;;;;9.77;7.47;;;3.70;99.90;;;;;;5018894;28;20416;-78
2021/01/03 12:32:41;;;;;;;7.10;5.20;;;3.70;99.90;;;;;;5032932;28;20435;-79
2021/01/03 12:35:09;;;;;;;12.50;6.77;;;3.70;99.90;;;;;;5009606;28;20404;-80
2021/01/03 12:37:39;;;;;;;13.17;7.47;;;3.80;99.90;;;;;;5003437;28;20508;-79
2021/01/03 12:40:08;;;;;;;13.63;7.73;;;3.80;99.90;;;;;;5020948;28;20871;-80
2021/01/03 12:42:36;;;;;;;6.63;5.73;;;3.70;99.90;;;;;;4987524;28;20406;-81
2021/01/03 12:45:04;;;;;;;11.00;7.37;;;3.70;99.90;;;;;;4985933;28;20417;-79
2021/01/03 12:47:33;;;;;;;10.53;7.73;;;3.80;99.90;;;;;;4988463;28;20423;-78
2021/01/03 12:49:59;;;;;;;8.03;7.13;;;3.80;99.90;;;;;;4986313;28;20455;-79
2021/01/03 12:52:28;;;;;;;9.80;5.70;;;3.70;99.90;;;;;;4984203;28;20193;-79
2021/01/03 12:54:57;;;;;;;7.17;6.30;;;3.70;99.90;;;;;;4964563;28;20411;-80
2021/01/03 12:57:22;;;;;;;6.80;5.43;;;3.70;99.90;;;;;;4981773;28;20389;-79
2021/01/03 12:59:52;;;;;;;12.63;6.43;;;3.60;99.90;;;;;;5002182;28;20807;-80
2021/01/03 13:02:22;;;;;;;7.43;6.40;;;3.70;99.90;;;;;;4965623;28;20385;-80
2021/01/03 13:04:48;;;;;;;5.83;5.33;;;3.70;99.90;;;;;;4982882;28;20454;-79
2021/01/03 13:07:14;;;;;;;10.73;4.50;;;3.70;99.90;;;;;;4965914;28;20422;-79
2021/01/03 13:10:04;;;;;;;9.03;5.93;;;3.70;99.90;;;;;;4952285;28;20208;-81
2021/01/03 13:12:34;;;;;;;13.13;6.10;;;3.70;99.90;;;;;;5017288;28;20420;-79
2021/01/03 13:14:59;;;;;;;11.67;5.87;;;3.70;99.90;;;;;;5001693;28;20388;-80
2021/01/03 13:17:26;;;;;;;7.83;6.03;;;3.70;99.90;;;;;;4966115;28;20401;-80
2021/01/03 13:20:01;;;;;;;19.70;7.77;;;3.70;99.90;;;;;;4945621;28;20714;-79